Terminal Aerodrome Forecast
Issued by NWS Topeka, KS

Home | Current Version | Previous Version | Graphics & Text | Print | Product List | Glossary On
Versions: 1 2 3 4 5 6 7 8 9 10 11 12 13 14 15 16 17 18 19 20 21 22
000
FTUS43 KTOP 142300
TAFTOP
TAF
KTOP 142320Z 1500/1524 16008KT P6SM SCT040 PROB30 1511/1515 -TSRA
      BKN035CB
     FM151600 35010KT 3SM -DZ BR OVC012
     FM152200 02009KT 6SM BR BKN025=

USA.gov is the U.S. government's official web portal to all federal, state and local government web resources and services.